createdAt,value
2023-03-17T00:00:10.144Z,0.50
2023-03-17T00:02:42.047Z,0.85
2023-03-17T00:05:15.919Z,0.77
2023-03-17T00:07:43.487Z,0.50
2023-03-17T00:10:17.351Z,0.38
2023-03-17T00:12:45.612Z,0.55
2023-03-17T00:15:13.855Z,0.85
2023-03-17T00:17:41.634Z,0.93
2023-03-17T00:20:12.891Z,0.75
2023-03-17T00:22:40.895Z,0.70
2023-03-17T00:25:18.076Z,0.50
2023-03-17T00:27:46.974Z,0.75
2023-03-17T00:30:14.830Z,0.50
2023-03-17T00:32:45.618Z,0.55
2023-03-17T00:35:17.420Z,0.82
2023-03-17T00:37:45.499Z,0.88
2023-03-17T00:40:16.349Z,0.47
2023-03-17T00:42:43.964Z,0.40
2023-03-17T00:45:13.278Z,0.85
2023-03-17T00:47:41.328Z,0.73
2023-03-17T00:50:11.977Z,0.60
2023-03-17T00:52:40.665Z,0.63
2023-03-17T00:55:10.003Z,0.40
2023-03-17T00:57:37.769Z,0.68
2023-03-17T01:00:06.141Z,1.15
2023-03-17T01:02:34.861Z,0.32
2023-03-17T01:05:06.611Z,0.85
2023-03-17T01:07:35.085Z,0.75
2023-03-17T01:10:02.707Z,0.52
2023-03-17T01:12:30.360Z,0.75
2023-03-17T01:14:58.067Z,0.65
2023-03-17T01:17:25.638Z,0.88
2023-03-17T01:19:53.691Z,0.50
2023-03-17T01:22:22.628Z,0.30
2023-03-17T01:24:50.265Z,0.50
2023-03-17T01:27:19.167Z,0.68
2023-03-17T01:29:46.803Z,0.88
2023-03-17T01:32:14.523Z,0.55
2023-03-17T01:34:42.113Z,0.98
2023-03-17T01:37:09.720Z,0.75
2023-03-17T01:39:39.766Z,0.50
2023-03-17T01:42:07.721Z,0.50
2023-03-17T01:44:35.399Z,0.65
2023-03-17T01:47:03.006Z,0.50
2023-03-17T01:49:33.034Z,0.55
2023-03-17T01:52:03.316Z,0.40
2023-03-17T01:54:34.756Z,0.40
2023-03-17T01:57:07.661Z,0.55
2023-03-17T01:59:37.682Z,0.63
2023-03-17T02:02:07.443Z,0.65
2023-03-17T02:04:36.348Z,0.52
2023-03-17T02:07:05.135Z,0.57
2023-03-17T02:09:34.026Z,0.32
2023-03-17T02:12:02.583Z,0.73
2023-03-17T02:14:31.587Z,0.88
2023-03-17T02:16:59.220Z,0.40
2023-03-17T02:19:26.907Z,0.40
2023-03-17T02:21:58.022Z,0.55
2023-03-17T02:24:37.133Z,0.68
2023-03-17T02:27:07.790Z,0.70
2023-03-17T02:29:37.722Z,0.47
2023-03-17T02:32:06.144Z,0.70
2023-03-17T02:34:35.042Z,0.82
2023-03-17T02:37:05.683Z,0.40
2023-03-17T02:39:33.235Z,0.47
2023-03-17T02:42:01.154Z,0.32
2023-03-17T02:44:28.845Z,0.63
2023-03-17T02:46:56.597Z,0.60
2023-03-17T02:49:25.805Z,0.40
2023-03-17T02:51:53.456Z,0.40
2023-03-17T02:54:22.562Z,0.38
2023-03-17T02:56:50.163Z,0.50
2023-03-17T02:59:17.925Z,0.55
2023-03-17T03:01:48.449Z,0.50
2023-03-17T03:04:16.130Z,0.85
2023-03-17T03:06:44.722Z,0.85
2023-03-17T03:09:12.687Z,0.43
2023-03-17T03:11:42.658Z,0.40
2023-03-17T03:14:11.053Z,0.57
2023-03-17T03:16:38.772Z,0.55
2023-03-17T03:19:06.674Z,0.40
2023-03-17T03:21:34.565Z,0.40
2023-03-17T03:24:02.126Z,0.40
2023-03-17T03:26:29.807Z,0.50
2023-03-17T03:28:59.988Z,0.60
2023-03-17T03:31:27.922Z,0.77
2023-03-17T03:33:55.712Z,0.68
2023-03-17T03:36:23.504Z,0.68
2023-03-17T03:38:51.111Z,0.38
2023-03-17T03:41:18.828Z,0.35
2023-03-17T03:43:46.400Z,0.50
2023-03-17T03:46:15.598Z,0.60
2023-03-17T03:48:43.283Z,0.60
2023-03-17T03:51:10.882Z,0.68
2023-03-17T03:53:38.504Z,0.47
2023-03-17T03:56:06.540Z,0.32
2023-03-17T03:58:34.144Z,0.55
2023-03-17T04:01:04.648Z,0.45
2023-03-17T04:03:34.035Z,0.43
2023-03-17T04:06:01.648Z,0.52
2023-03-17T04:08:29.206Z,0.60
2023-03-17T04:10:56.814Z,0.40
2023-03-17T04:13:24.382Z,0.55
2023-03-17T04:15:52.061Z,0.65
2023-03-17T04:18:19.655Z,0.45
2023-03-17T04:20:48.579Z,0.40
2023-03-17T04:23:16.138Z,0.68
2023-03-17T04:25:43.717Z,0.60
2023-03-17T04:28:12.168Z,0.50
2023-03-17T04:30:39.686Z,0.65
2023-03-17T04:33:07.327Z,0.63
2023-03-17T04:35:34.952Z,0.50
2023-03-17T04:38:03.976Z,0.50
2023-03-17T04:40:32.450Z,0.70
2023-03-17T04:43:01.893Z,0.40
2023-03-17T04:45:30.886Z,0.65
2023-03-17T04:47:58.426Z,0.40
2023-03-17T04:50:26.469Z,0.50
2023-03-17T04:52:54.105Z,0.60
2023-03-17T04:55:23.095Z,0.65
2023-03-17T04:57:50.877Z,0.47
2023-03-17T05:00:19.638Z,0.40
2023-03-17T05:02:47.205Z,0.40
2023-03-17T05:05:14.828Z,0.30
2023-03-17T05:07:44.688Z,0.30
2023-03-17T05:10:13.758Z,0.50
2023-03-17T05:12:42.825Z,0.57
2023-03-17T05:15:11.104Z,0.68
2023-03-17T05:17:38.706Z,0.50
2023-03-17T05:20:08.334Z,0.82
2023-03-17T05:22:36.171Z,0.93
2023-03-17T05:25:03.854Z,0.52
2023-03-17T05:27:31.440Z,0.65
2023-03-17T05:30:00.592Z,0.75
2023-03-17T05:32:28.174Z,0.60
2023-03-17T05:34:55.866Z,0.38
2023-03-17T05:37:23.675Z,0.57
2023-03-17T05:39:52.655Z,0.40
2023-03-17T05:42:20.341Z,0.77
2023-03-17T05:44:47.906Z,0.50
2023-03-17T05:47:16.878Z,0.60
2023-03-17T05:49:44.450Z,0.57
2023-03-17T05:52:12.008Z,0.82
2023-03-17T05:54:39.648Z,0.40
2023-03-17T05:57:07.677Z,0.50
2023-03-17T05:59:35.371Z,0.68
2023-03-17T06:02:02.973Z,0.32
2023-03-17T06:04:32.863Z,0.50
2023-03-17T06:07:00.452Z,0.60
2023-03-17T06:09:28.079Z,0.38
2023-03-17T06:11:55.660Z,0.80
2023-03-17T06:14:23.695Z,0.73
2023-03-17T06:16:52.128Z,0.70
2023-03-17T06:19:20.835Z,0.38
2023-03-17T06:21:49.757Z,0.50
2023-03-17T06:24:17.366Z,0.30
2023-03-17T06:26:45.043Z,0.57
2023-03-17T06:29:12.745Z,0.57
2023-03-17T06:31:40.841Z,0.40
2023-03-17T06:34:08.843Z,0.63
2023-03-17T06:36:38.561Z,0.52
2023-03-17T06:39:07.575Z,0.65
2023-03-17T06:41:35.171Z,0.65
2023-03-17T06:44:02.876Z,0.93
2023-03-17T06:46:30.518Z,0.98
2023-03-17T06:48:58.107Z,0.50
2023-03-17T06:51:26.060Z,0.50
2023-03-17T06:53:53.624Z,0.50
2023-03-17T06:56:29.875Z,0.57
2023-03-17T06:58:58.323Z,0.77
2023-03-17T07:01:25.956Z,0.55
2023-03-17T07:03:53.588Z,0.50
2023-03-17T07:06:23.252Z,0.60
2023-03-17T07:08:52.291Z,0.60
2023-03-17T07:11:19.923Z,0.40
2023-03-17T07:13:48.851Z,0.60
2023-03-17T07:16:16.889Z,0.95
2023-03-17T07:18:45.024Z,0.52
2023-03-17T07:21:12.767Z,0.38
2023-03-17T07:23:40.628Z,0.60
2023-03-17T07:26:08.469Z,0.60
2023-03-17T07:28:36.433Z,0.55
2023-03-17T07:31:07.865Z,0.50
2023-03-17T07:33:35.602Z,0.50
2023-03-17T07:36:03.328Z,0.65
2023-03-17T07:38:30.954Z,0.40
2023-03-17T07:40:58.515Z,0.73
2023-03-17T07:43:26.759Z,0.55
2023-03-17T07:45:54.451Z,0.50
2023-03-17T07:48:24.063Z,0.70
2023-03-17T07:50:51.604Z,0.40
2023-03-17T07:53:19.255Z,0.52
2023-03-17T07:55:46.894Z,0.70
2023-03-17T07:58:15.947Z,0.60
2023-03-17T08:00:43.657Z,0.70
2023-03-17T08:03:11.382Z,0.65
2023-03-17T08:05:41.032Z,0.50
2023-03-17T08:08:08.655Z,1.15
2023-03-17T08:10:36.318Z,1.15
2023-03-17T08:13:04.014Z,0.90
2023-03-17T08:15:31.837Z,0.80
2023-03-17T08:17:59.638Z,1.02
2023-03-17T08:20:27.220Z,0.80
2023-03-17T08:22:56.804Z,1.05
2023-03-17T08:25:24.651Z,0.98
2023-03-17T08:27:52.492Z,0.82
2023-03-17T08:30:21.059Z,0.80
2023-03-17T08:32:49.253Z,1.05
2023-03-17T08:35:18.503Z,1.02
2023-03-17T08:37:47.072Z,1.05
2023-03-17T08:40:17.957Z,0.95
2023-03-17T08:42:45.718Z,1.10
2023-03-17T08:45:13.543Z,1.13
2023-03-17T08:47:41.151Z,1.13
2023-03-17T08:50:11.281Z,1.00
2023-03-17T08:52:39.426Z,1.00
2023-03-17T08:55:08.861Z,1.40
2023-03-17T08:57:37.938Z,1.10
2023-03-17T09:00:10.913Z,1.30
2023-03-17T09:02:38.818Z,1.33
2023-03-17T09:05:07.101Z,1.13
2023-03-17T09:07:34.883Z,1.15
2023-03-17T09:10:04.102Z,1.02
2023-03-17T09:12:34.154Z,1.30
2023-03-17T09:15:03.367Z,1.30
2023-03-17T09:17:30.950Z,1.30
2023-03-17T09:19:59.407Z,0.77
2023-03-17T09:22:27.100Z,1.13
2023-03-17T09:24:54.882Z,1.05
2023-03-17T09:27:22.464Z,1.08
2023-03-17T09:29:50.189Z,1.80
2023-03-17T09:32:19.555Z,1.25
2023-03-17T09:34:49.137Z,1.80
2023-03-17T09:37:17.881Z,1.50
2023-03-17T09:39:45.493Z,1.35
2023-03-17T09:42:33.303Z,1.13
2023-03-17T09:45:09.168Z,0.98
2023-03-17T09:47:44.456Z,1.50
2023-03-17T09:50:14.185Z,1.65
2023-03-17T09:52:41.813Z,1.30
2023-03-17T09:55:18.135Z,1.83
2023-03-17T09:57:46.069Z,1.27
2023-03-17T10:00:15.253Z,1.10
2023-03-17T10:02:44.462Z,1.63
2023-03-17T10:05:19.498Z,1.50
2023-03-17T10:07:49.450Z,0.90
2023-03-17T10:10:20.844Z,1.40
2023-03-17T10:12:55.296Z,1.48
2023-03-17T10:15:36.067Z,1.40
2023-03-17T10:18:09.703Z,1.05
2023-03-17T10:20:42.553Z,1.10
2023-03-17T10:23:12.825Z,1.33
2023-03-17T10:25:40.795Z,1.20
2023-03-17T10:28:12.273Z,1.40
2023-03-17T10:30:40.251Z,1.52
2023-03-17T10:33:09.413Z,1.38
2023-03-17T10:35:39.378Z,1.50
2023-03-17T10:38:15.880Z,1.20
2023-03-17T10:40:45.309Z,1.42
2023-03-17T10:43:17.407Z,1.67
2023-03-17T10:45:48.529Z,1.30
2023-03-17T10:48:20.667Z,1.77
2023-03-17T10:50:49.560Z,1.50
2023-03-17T10:53:27.889Z,1.67
2023-03-17T10:55:57.395Z,1.27
2023-03-17T10:58:31.774Z,1.63
2023-03-17T11:01:00.896Z,1.23
2023-03-17T11:03:31.451Z,1.40
2023-03-17T11:06:02.251Z,1.95
2023-03-17T11:08:32.117Z,1.33
2023-03-17T11:10:59.673Z,1.50
2023-03-17T11:13:30.087Z,1.45
2023-03-17T11:16:02.056Z,1.42
2023-03-17T11:18:35.605Z,1.40
2023-03-17T11:21:06.325Z,1.67
2023-03-17T11:23:39.648Z,1.08
2023-03-17T11:26:14.743Z,1.38
2023-03-17T11:28:45.442Z,1.52
2023-03-17T11:31:19.227Z,1.30
2023-03-17T11:33:50.650Z,1.25
2023-03-17T11:36:25.619Z,1.60
2023-03-17T11:38:58.549Z,1.80
2023-03-17T11:41:44.975Z,1.55
2023-03-17T11:44:35.974Z,1.40
2023-03-17T11:47:08.974Z,1.45
2023-03-17T11:49:38.664Z,1.55
2023-03-17T11:52:12.193Z,1.60
2023-03-17T11:54:47.045Z,1.65
2023-03-17T11:57:17.538Z,1.55
2023-03-17T11:59:48.436Z,1.38
2023-03-17T12:02:20.310Z,1.13
2023-03-17T12:04:53.234Z,1.52
2023-03-17T12:07:22.917Z,1.65
2023-03-17T12:09:58.007Z,1.63
2023-03-17T12:12:29.565Z,1.45
2023-03-17T12:14:58.224Z,1.58
2023-03-17T12:17:30.241Z,1.48
2023-03-17T12:20:06.752Z,1.20
2023-03-17T12:22:35.740Z,1.38
2023-03-17T12:25:05.832Z,1.35
2023-03-17T12:27:35.945Z,1.42
2023-03-17T12:30:06.479Z,0.85
2023-03-17T12:32:36.879Z,1.23
2023-03-17T12:35:18.049Z,1.20
2023-03-17T12:37:45.676Z,1.50
2023-03-17T12:40:15.416Z,1.20
2023-03-17T12:42:47.048Z,1.00
2023-03-17T12:45:23.648Z,1.00
2023-03-17T12:47:59.465Z,1.40
2023-03-17T12:50:51.179Z,1.52
2023-03-17T12:53:36.607Z,1.10
2023-03-17T12:56:10.419Z,1.20
2023-03-17T12:58:38.837Z,1.20
2023-03-17T13:01:08.802Z,1.23
2023-03-17T13:03:38.586Z,1.02
2023-03-17T13:06:08.489Z,1.48
2023-03-17T13:08:37.907Z,1.40
2023-03-17T13:11:16.900Z,1.20
2023-03-17T13:13:46.664Z,0.90
2023-03-17T13:16:27.596Z,1.48
2023-03-17T13:19:14.100Z,1.20
2023-03-17T13:21:45.296Z,1.20
2023-03-17T13:24:37.212Z,1.30
2023-03-17T13:27:11.039Z,1.23
2023-03-17T13:29:40.896Z,1.60
2023-03-17T13:32:31.507Z,1.95
2023-03-17T13:35:15.933Z,1.65
2023-03-17T13:37:50.372Z,1.40
2023-03-17T13:40:21.271Z,1.50
2023-03-17T13:42:55.744Z,1.30
2023-03-17T13:45:38.251Z,1.73
2023-03-17T13:48:24.691Z,1.58
2023-03-17T13:50:57.658Z,1.52
2023-03-17T13:53:27.652Z,1.10
2023-03-17T13:56:06.288Z,1.23
2023-03-17T13:58:36.104Z,1.42
2023-03-17T14:01:07.249Z,1.73
2023-03-17T14:03:37.469Z,1.80
2023-03-17T14:06:06.629Z,1.30
2023-03-17T14:08:35.821Z,1.30
2023-03-17T14:11:04.782Z,1.30
2023-03-17T14:13:33.505Z,1.25
2023-03-17T14:16:04.158Z,1.42
2023-03-17T14:18:33.856Z,1.40
2023-03-17T14:21:02.717Z,1.48
2023-03-17T14:23:30.574Z,1.40
2023-03-17T14:25:59.226Z,1.67
2023-03-17T14:28:27.754Z,1.48
2023-03-17T14:30:57.188Z,1.58
2023-03-17T14:33:27.101Z,1.35
2023-03-17T14:35:57.195Z,1.20
2023-03-17T14:38:25.871Z,1.35
2023-03-17T14:41:04.995Z,1.58
2023-03-17T14:43:33.063Z,1.35
2023-03-17T14:46:01.445Z,1.48
2023-03-17T14:48:32.794Z,1.52
2023-03-17T14:51:05.494Z,1.45
2023-03-17T14:53:33.220Z,1.30
2023-03-17T14:56:01.354Z,1.40
2023-03-17T14:58:31.240Z,1.30
2023-03-17T15:01:03.398Z,1.40
2023-03-17T15:03:34.219Z,1.60
2023-03-17T15:06:06.682Z,1.30
2023-03-17T15:08:42.718Z,1.48
2023-03-17T15:11:16.194Z,1.50
2023-03-17T15:13:43.922Z,1.75
2023-03-17T15:16:17.419Z,1.50
2023-03-17T15:18:46.757Z,1.83
2023-03-17T15:21:22.756Z,1.83
2023-03-17T15:23:50.546Z,1.90
2023-03-17T15:26:22.810Z,1.52
2023-03-17T15:28:50.511Z,1.50
2023-03-17T15:31:23.348Z,1.60
2023-03-17T15:33:52.333Z,1.50
2023-03-17T15:36:31.965Z,1.52
2023-03-17T15:39:00.590Z,1.60
2023-03-17T15:41:28.267Z,1.67
2023-03-17T15:43:56.748Z,1.88
2023-03-17T15:46:27.351Z,1.33
2023-03-17T15:48:56.450Z,1.45
2023-03-17T15:51:24.126Z,1.40
2023-03-17T15:53:51.751Z,1.58
2023-03-17T15:56:20.872Z,1.45
2023-03-17T15:58:49.193Z,1.52
2023-03-17T16:01:17.478Z,1.30
2023-03-17T16:03:47.146Z,1.55
2023-03-17T16:06:17.957Z,1.10
2023-03-17T16:08:45.699Z,1.52
2023-03-17T16:11:17.657Z,1.27
2023-03-17T16:13:45.242Z,1.38
2023-03-17T16:16:22.119Z,1.30
2023-03-17T16:18:51.036Z,1.60
2023-03-17T16:21:20.269Z,1.30
2023-03-17T16:23:48.766Z,1.30
2023-03-17T16:26:17.134Z,1.30
2023-03-17T16:28:45.905Z,1.30
2023-03-17T16:31:22.042Z,1.25
2023-03-17T16:33:50.207Z,1.30
2023-03-17T16:36:18.540Z,1.40
2023-03-17T16:38:48.005Z,1.52
2023-03-17T16:41:17.609Z,1.20
2023-03-17T16:43:46.008Z,1.50
2023-03-17T16:46:13.760Z,1.70
2023-03-17T16:48:41.414Z,1.33
2023-03-17T16:51:09.038Z,1.40
2023-03-17T16:53:36.785Z,1.27
2023-03-17T16:56:08.372Z,1.25
2023-03-17T16:58:36.787Z,1.42
2023-03-17T17:01:07.202Z,1.55
2023-03-17T17:03:37.689Z,1.40
2023-03-17T17:06:05.809Z,1.10
2023-03-17T17:08:33.720Z,1.27
2023-03-17T17:11:01.291Z,1.67
2023-03-17T17:13:30.360Z,1.40
2023-03-17T17:15:58.018Z,1.45
2023-03-17T17:18:25.973Z,1.20
2023-03-17T17:20:54.633Z,1.10
2023-03-17T17:23:23.236Z,1.08
2023-03-17T17:25:51.500Z,1.30
2023-03-17T17:28:20.050Z,1.25
2023-03-17T17:30:49.240Z,1.13
2023-03-17T17:33:17.898Z,1.33
2023-03-17T17:35:45.987Z,1.20
2023-03-17T17:38:17.459Z,1.10
2023-03-17T17:40:45.108Z,1.23
2023-03-17T17:43:12.704Z,1.30
2023-03-17T17:45:41.213Z,1.30
2023-03-17T17:48:10.998Z,1.20
2023-03-17T17:50:38.562Z,1.20
2023-03-17T17:53:08.719Z,1.30
2023-03-17T17:55:36.329Z,1.40
2023-03-17T17:58:03.930Z,1.30
2023-03-17T18:00:32.639Z,1.10
2023-03-17T18:03:00.463Z,1.17
2023-03-17T18:05:29.571Z,1.40
2023-03-17T18:07:58.098Z,1.42
2023-03-17T18:10:26.014Z,1.10
2023-03-17T18:12:53.669Z,1.38
2023-03-17T18:15:21.907Z,1.55
2023-03-17T18:17:49.896Z,1.40
2023-03-17T18:20:18.870Z,1.40
2023-03-17T18:22:47.837Z,1.30
2023-03-17T18:25:15.511Z,1.10
2023-03-17T18:27:43.593Z,1.30
2023-03-17T18:30:13.208Z,1.20
2023-03-17T18:32:41.126Z,1.17
2023-03-17T18:35:10.221Z,1.40
2023-03-17T18:37:38.069Z,1.10
2023-03-17T18:40:15.183Z,1.10
2023-03-17T18:42:42.917Z,1.13
2023-03-17T18:45:11.567Z,2.08
2023-03-17T18:47:40.929Z,1.77
2023-03-17T18:50:09.373Z,1.75
2023-03-17T18:52:37.999Z,1.60
2023-03-17T18:55:07.314Z,2.03
2023-03-17T18:57:34.950Z,1.95
2023-03-17T19:00:02.574Z,1.80
2023-03-17T19:02:30.357Z,1.60
2023-03-17T19:04:58.122Z,2.00
2023-03-17T19:07:25.720Z,2.25
2023-03-17T19:09:53.322Z,1.90
2023-03-17T19:12:22.302Z,1.95
2023-03-17T19:14:50.235Z,1.77
2023-03-17T19:17:18.162Z,1.80
2023-03-17T19:19:46.233Z,2.42
2023-03-17T19:22:14.058Z,1.92
2023-03-17T19:24:41.839Z,2.28
2023-03-17T19:27:09.702Z,1.85
2023-03-17T19:29:38.623Z,1.80
2023-03-17T19:32:06.389Z,2.22
2023-03-17T19:34:34.004Z,1.83
2023-03-17T19:37:03.519Z,2.13
2023-03-17T19:39:33.449Z,2.40
2023-03-17T19:42:01.350Z,2.42
2023-03-17T19:44:28.934Z,2.08
2023-03-17T19:46:57.838Z,2.00
2023-03-17T19:49:26.081Z,2.17
2023-03-17T19:51:54.107Z,2.05
2023-03-17T19:54:23.409Z,2.13
2023-03-17T19:56:51.855Z,2.30
2023-03-17T19:59:19.776Z,1.92
2023-03-17T20:01:48.640Z,2.00
2023-03-17T20:04:19.552Z,2.47
2023-03-17T20:06:47.575Z,2.40
2023-03-17T20:09:15.368Z,2.15
2023-03-17T20:11:42.982Z,2.03
2023-03-17T20:14:10.740Z,2.22
2023-03-17T20:16:39.295Z,2.38
2023-03-17T20:19:08.297Z,2.60
2023-03-17T20:21:37.639Z,1.77
2023-03-17T20:24:05.478Z,2.05
2023-03-17T20:26:33.941Z,2.10
2023-03-17T20:29:01.736Z,2.35
2023-03-17T20:31:29.755Z,2.15
2023-03-17T20:33:57.430Z,2.17
2023-03-17T20:36:25.020Z,2.33
2023-03-17T20:38:53.977Z,2.55
2023-03-17T20:41:22.367Z,1.63
2023-03-17T20:43:49.904Z,0.90
2023-03-17T20:46:18.474Z,0.98
2023-03-17T20:48:48.086Z,0.77
2023-03-17T20:51:17.107Z,0.95
2023-03-17T20:53:46.291Z,0.93
2023-03-17T20:56:16.433Z,0.82
2023-03-17T20:58:45.414Z,0.63
2023-03-17T21:01:13.353Z,0.85
2023-03-17T21:03:41.271Z,0.77
2023-03-17T21:06:09.614Z,1.25
2023-03-17T21:08:37.700Z,0.80
2023-03-17T21:11:05.797Z,0.60
2023-03-17T21:13:35.248Z,0.38
2023-03-17T21:16:03.270Z,0.60
2023-03-17T21:18:30.894Z,0.85
2023-03-17T21:20:58.479Z,0.47
2023-03-17T21:23:27.032Z,0.57
2023-03-17T21:25:56.196Z,0.60
2023-03-17T21:28:23.785Z,1.00
2023-03-17T21:30:52.777Z,0.77
2023-03-17T21:33:21.369Z,0.75
2023-03-17T21:35:49.078Z,0.68
2023-03-17T21:38:16.912Z,0.85
2023-03-17T21:40:44.497Z,0.77
2023-03-17T21:43:12.134Z,1.52
2023-03-17T21:45:40.586Z,0.73
2023-03-17T21:48:09.601Z,0.47
2023-03-17T21:50:37.365Z,0.50
2023-03-17T21:53:05.101Z,0.85
2023-03-17T21:55:32.702Z,0.50
2023-03-17T21:58:00.275Z,0.60
2023-03-17T22:00:35.942Z,0.80
2023-03-17T22:03:11.956Z,0.52
2023-03-17T22:05:39.567Z,0.80
2023-03-17T22:08:07.519Z,0.55
2023-03-17T22:10:35.105Z,0.75
2023-03-17T22:13:02.700Z,0.82
2023-03-17T22:15:30.452Z,0.60
2023-03-17T22:17:59.170Z,0.55
2023-03-17T22:20:30.015Z,0.85
2023-03-17T22:22:57.865Z,0.65
2023-03-17T22:25:25.459Z,0.93
2023-03-17T22:27:53.610Z,0.85
2023-03-17T22:30:21.383Z,0.82
2023-03-17T22:32:50.031Z,0.95
2023-03-17T22:35:19.267Z,0.75
2023-03-17T22:37:48.216Z,0.57
2023-03-17T22:40:15.843Z,1.05
2023-03-17T22:42:43.404Z,0.60
2023-03-17T22:45:13.155Z,0.52
2023-03-17T22:47:40.988Z,0.77
2023-03-17T22:50:09.124Z,0.63
2023-03-17T22:52:37.117Z,1.00
2023-03-17T22:55:06.621Z,0.70
2023-03-17T22:57:34.260Z,0.55
2023-03-17T23:00:01.962Z,0.63
2023-03-17T23:02:29.543Z,0.75
2023-03-17T23:04:57.161Z,0.40
2023-03-17T23:07:24.705Z,0.47
2023-03-17T23:09:52.349Z,0.40
2023-03-17T23:12:23.081Z,0.47
2023-03-17T23:14:50.713Z,0.70
2023-03-17T23:17:18.626Z,0.60
2023-03-17T23:19:46.230Z,0.52
2023-03-17T23:22:13.793Z,0.80
2023-03-17T23:24:41.441Z,0.65
2023-03-17T23:27:09.143Z,0.63
2023-03-17T23:29:38.153Z,0.50
2023-03-17T23:32:06.010Z,0.70
2023-03-17T23:34:33.720Z,0.57
2023-03-17T23:37:01.621Z,0.55
2023-03-17T23:39:29.228Z,0.70
2023-03-17T23:41:56.853Z,0.65
2023-03-17T23:44:24.444Z,1.02
2023-03-17T23:46:53.371Z,0.68
2023-03-17T23:49:21.240Z,0.73
2023-03-17T23:51:49.244Z,0.80
2023-03-17T23:54:16.844Z,0.65
2023-03-17T23:56:45.114Z,0.90
2023-03-17T23:59:13.009Z,0.85
